sensor_id;sensor_type;location;lat;lon;timestamp;pressure;altitude;pressure_sealevel;temperature;humidity
29907;BME280;16776;50.958;10.994;2023-09-08T00:02:23;98937.59;;;18.09;90.05
29907;BME280;16776;50.958;10.994;2023-09-08T00:04:50;98937.72;;;18.06;89.96
29907;BME280;16776;50.958;10.994;2023-09-08T00:07:17;98938.75;;;18.03;90.19
29907;BME280;16776;50.958;10.994;2023-09-08T00:09:43;98932.00;;;17.99;90.29
29907;BME280;16776;50.958;10.994;2023-09-08T00:12:10;98935.63;;;17.97;90.44
29907;BME280;16776;50.958;10.994;2023-09-08T00:14:40;98926.78;;;17.99;90.14
29907;BME280;16776;50.958;10.994;2023-09-08T00:17:06;98930.81;;;17.89;90.36
29907;BME280;16776;50.958;10.994;2023-09-08T00:19:33;98928.25;;;17.88;90.39
29907;BME280;16776;50.958;10.994;2023-09-08T00:21:59;98930.28;;;17.83;90.65
29907;BME280;16776;50.958;10.994;2023-09-08T00:24:27;98928.84;;;17.77;90.83
29907;BME280;16776;50.958;10.994;2023-09-08T00:26:54;98924.47;;;17.77;90.67
29907;BME280;16776;50.958;10.994;2023-09-08T00:29:21;98929.03;;;17.72;90.96
29907;BME280;16776;50.958;10.994;2023-09-08T00:31:48;98934.25;;;17.72;90.76
29907;BME280;16776;50.958;10.994;2023-09-08T00:34:15;98926.72;;;17.66;90.73
29907;BME280;16776;50.958;10.994;2023-09-08T00:36:41;98929.50;;;17.63;90.68
29907;BME280;16776;50.958;10.994;2023-09-08T00:39:08;98919.38;;;17.57;91.09
29907;BME280;16776;50.958;10.994;2023-09-08T00:41:35;98929.09;;;17.54;90.84
29907;BME280;16776;50.958;10.994;2023-09-08T00:44:01;98928.44;;;17.50;90.53
29907;BME280;16776;50.958;10.994;2023-09-08T00:46:28;98928.75;;;17.44;90.78
29907;BME280;16776;50.958;10.994;2023-09-08T00:48:57;98937.63;;;17.40;90.49
29907;BME280;16776;50.958;10.994;2023-09-08T00:51:24;98933.78;;;17.30;91.00
29907;BME280;16776;50.958;10.994;2023-09-08T00:53:50;98935.00;;;17.23;91.12
29907;BME280;16776;50.958;10.994;2023-09-08T00:56:17;98930.09;;;17.17;91.41
29907;BME280;16776;50.958;10.994;2023-09-08T00:58:44;98937.28;;;17.12;91.44
29907;BME280;16776;50.958;10.994;2023-09-08T01:01:11;98940.97;;;17.08;91.66
29907;BME280;16776;50.958;10.994;2023-09-08T01:03:40;98935.75;;;17.08;91.61
29907;BME280;16776;50.958;10.994;2023-09-08T01:06:07;98940.25;;;17.04;91.67
29907;BME280;16776;50.958;10.994;2023-09-08T01:08:34;98940.53;;;16.98;91.65
29907;BME280;16776;50.958;10.994;2023-09-08T01:11:02;98940.63;;;16.96;92.24
29907;BME280;16776;50.958;10.994;2023-09-08T01:13:28;98939.00;;;16.94;92.11
29907;BME280;16776;50.958;10.994;2023-09-08T01:15:55;98938.19;;;16.92;91.60
29907;BME280;16776;50.958;10.994;2023-09-08T01:18:22;98940.97;;;16.89;91.78
29907;BME280;16776;50.958;10.994;2023-09-08T01:21:03;98939.69;;;16.97;91.49
29907;BME280;16776;50.958;10.994;2023-09-08T01:23:46;98939.97;;;16.91;91.67
29907;BME280;16776;50.958;10.994;2023-09-08T01:26:20;98941.16;;;16.84;92.34
29907;BME280;16776;50.958;10.994;2023-09-08T01:28:49;98939.69;;;16.79;92.02
29907;BME280;16776;50.958;10.994;2023-09-08T01:31:16;98939.06;;;16.74;92.21
29907;BME280;16776;50.958;10.994;2023-09-08T01:33:43;98937.53;;;16.70;92.44
29907;BME280;16776;50.958;10.994;2023-09-08T01:36:10;98935.97;;;16.66;92.64
29907;BME280;16776;50.958;10.994;2023-09-08T01:38:37;98929.19;;;16.63;92.47
29907;BME280;16776;50.958;10.994;2023-09-08T01:41:03;98924.19;;;16.58;92.52
29907;BME280;16776;50.958;10.994;2023-09-08T01:43:31;98920.72;;;16.58;92.40
29907;BME280;16776;50.958;10.994;2023-09-08T01:45:58;98928.06;;;16.50;92.53
29907;BME280;16776;50.958;10.994;2023-09-08T01:48:24;98919.63;;;16.45;92.71
29907;BME280;16776;50.958;10.994;2023-09-08T01:50:51;98913.03;;;16.38;92.70
29907;BME280;16776;50.958;10.994;2023-09-08T01:53:17;98921.03;;;16.33;92.84
29907;BME280;16776;50.958;10.994;2023-09-08T01:55:44;98915.19;;;16.28;92.83
29907;BME280;16776;50.958;10.994;2023-09-08T01:58:11;98914.34;;;16.28;93.24
29907;BME280;16776;50.958;10.994;2023-09-08T02:00:38;98916.94;;;16.28;93.35
29907;BME280;16776;50.958;10.994;2023-09-08T02:03:05;98908.47;;;16.24;93.34
29907;BME280;16776;50.958;10.994;2023-09-08T02:05:32;98912.03;;;16.22;93.23
29907;BME280;16776;50.958;10.994;2023-09-08T02:07:59;98906.91;;;16.20;93.35
29907;BME280;16776;50.958;10.994;2023-09-08T02:10:26;98902.59;;;16.19;93.78
29907;BME280;16776;50.958;10.994;2023-09-08T02:12:52;98907.13;;;16.15;93.55
29907;BME280;16776;50.958;10.994;2023-09-08T02:15:19;98908.03;;;16.13;93.45
29907;BME280;16776;50.958;10.994;2023-09-08T02:17:49;98910.50;;;16.17;93.56
29907;BME280;16776;50.958;10.994;2023-09-08T02:20:15;98909.03;;;16.10;93.73
29907;BME280;16776;50.958;10.994;2023-09-08T02:22:42;98910.88;;;16.08;93.40
29907;BME280;16776;50.958;10.994;2023-09-08T02:25:08;98911.88;;;16.06;93.82
29907;BME280;16776;50.958;10.994;2023-09-08T02:27:35;98905.03;;;16.03;93.69
29907;BME280;16776;50.958;10.994;2023-09-08T02:30:03;98916.38;;;16.01;93.75
29907;BME280;16776;50.958;10.994;2023-09-08T02:32:29;98908.75;;;15.98;93.80
29907;BME280;16776;50.958;10.994;2023-09-08T02:34:57;98917.38;;;15.98;93.66
29907;BME280;16776;50.958;10.994;2023-09-08T02:37:24;98909.78;;;15.94;93.73
29907;BME280;16776;50.958;10.994;2023-09-08T02:39:50;98914.28;;;15.90;93.96
29907;BME280;16776;50.958;10.994;2023-09-08T02:42:17;98912.66;;;15.88;93.88
29907;BME280;16776;50.958;10.994;2023-09-08T02:44:43;98911.94;;;15.84;93.88
29907;BME280;16776;50.958;10.994;2023-09-08T02:47:12;98912.78;;;15.85;93.98
29907;BME280;16776;50.958;10.994;2023-09-08T02:49:38;98912.22;;;15.78;94.32
29907;BME280;16776;50.958;10.994;2023-09-08T02:52:06;98907.03;;;15.78;93.97
29907;BME280;16776;50.958;10.994;2023-09-08T02:54:33;98909.88;;;15.72;94.32
29907;BME280;16776;50.958;10.994;2023-09-08T02:57:00;98907.41;;;15.69;94.43
29907;BME280;16776;50.958;10.994;2023-09-08T02:59:26;98902.38;;;15.66;94.20
29907;BME280;16776;50.958;10.994;2023-09-08T03:01:53;98908.53;;;15.63;94.31
29907;BME280;16776;50.958;10.994;2023-09-08T03:04:19;98911.16;;;15.62;94.28
29907;BME280;16776;50.958;10.994;2023-09-08T03:06:46;98906.25;;;15.56;94.41
29907;BME280;16776;50.958;10.994;2023-09-08T03:09:14;98911.31;;;15.59;94.25
29907;BME280;16776;50.958;10.994;2023-09-08T03:11:40;98904.63;;;15.53;94.72
29907;BME280;16776;50.958;10.994;2023-09-08T03:14:07;98907.28;;;15.52;94.46
29907;BME280;16776;50.958;10.994;2023-09-08T03:16:35;98897.28;;;15.42;94.55
29907;BME280;16776;50.958;10.994;2023-09-08T03:19:03;98899.78;;;15.46;94.62
29907;BME280;16776;50.958;10.994;2023-09-08T03:21:29;98903.25;;;15.45;94.73
29907;BME280;16776;50.958;10.994;2023-09-08T03:23:58;98904.13;;;15.45;94.59
29907;BME280;16776;50.958;10.994;2023-09-08T03:26:25;98900.03;;;15.39;94.56
29907;BME280;16776;50.958;10.994;2023-09-08T03:28:52;98898.59;;;15.32;94.58
29907;BME280;16776;50.958;10.994;2023-09-08T03:31:19;98908.16;;;15.30;94.54
29907;BME280;16776;50.958;10.994;2023-09-08T03:33:45;98899.66;;;15.27;94.64
29907;BME280;16776;50.958;10.994;2023-09-08T03:36:12;98905.06;;;15.22;94.58
29907;BME280;16776;50.958;10.994;2023-09-08T03:38:38;98890.91;;;15.09;94.50
29907;BME280;16776;50.958;10.994;2023-09-08T03:41:06;98894.13;;;15.14;94.80
29907;BME280;16776;50.958;10.994;2023-09-08T03:43:37;98897.63;;;15.13;94.57
29907;BME280;16776;50.958;10.994;2023-09-08T03:46:04;98895.34;;;15.06;94.75
29907;BME280;16776;50.958;10.994;2023-09-08T03:48:30;98901.56;;;15.01;94.89
29907;BME280;16776;50.958;10.994;2023-09-08T03:50:57;98900.84;;;14.98;95.17
29907;BME280;16776;50.958;10.994;2023-09-08T03:53:24;98893.19;;;14.95;94.86
29907;BME280;16776;50.958;10.994;2023-09-08T03:55:51;98890.72;;;14.92;94.90
29907;BME280;16776;50.958;10.994;2023-09-08T03:58:17;98873.06;;;14.80;94.92
29907;BME280;16776;50.958;10.994;2023-09-08T04:00:45;98888.31;;;14.87;94.72
29907;BME280;16776;50.958;10.994;2023-09-08T04:03:12;98883.31;;;14.83;96.92
29907;BME280;16776;50.958;10.994;2023-09-08T04:05:38;98888.38;;;14.86;97.98
29907;BME280;16776;50.958;10.994;2023-09-08T04:08:05;98890.56;;;14.96;98.54
29907;BME280;16776;50.958;10.994;2023-09-08T04:10:32;98881.09;;;15.16;98.68
29907;BME280;16776;50.958;10.994;2023-09-08T04:12:58;98884.47;;;15.39;98.72
29907;BME280;16776;50.958;10.994;2023-09-08T04:15:25;98870.41;;;15.64;98.48
29907;BME280;16776;50.958;10.994;2023-09-08T04:17:53;98876.09;;;15.92;98.03
29907;BME280;16776;50.958;10.994;2023-09-08T04:20:20;98873.38;;;16.14;97.69
29907;BME280;16776;50.958;10.994;2023-09-08T04:22:47;98869.81;;;16.35;97.25
29907;BME280;16776;50.958;10.994;2023-09-08T04:25:14;98858.16;;;16.44;97.21
29907;BME280;16776;50.958;10.994;2023-09-08T04:27:40;98871.53;;;16.72;96.49
29907;BME280;16776;50.958;10.994;2023-09-08T04:30:08;98876.69;;;16.91;96.58
29907;BME280;16776;50.958;10.994;2023-09-08T04:32:35;98877.97;;;17.01;96.30
29907;BME280;16776;50.958;10.994;2023-09-08T04:35:05;98878.81;;;17.19;95.57
29907;BME280;16776;50.958;10.994;2023-09-08T04:37:31;98883.66;;;17.26;95.38
29907;BME280;16776;50.958;10.994;2023-09-08T04:39:58;98877.88;;;17.37;95.29
29907;BME280;16776;50.958;10.994;2023-09-08T04:42:24;98885.31;;;17.45;95.01
29907;BME280;16776;50.958;10.994;2023-09-08T04:44:51;98873.69;;;17.52;94.76
29907;BME280;16776;50.958;10.994;2023-09-08T04:47:18;98872.50;;;17.57;94.87
29907;BME280;16776;50.958;10.994;2023-09-08T04:49:44;98883.53;;;17.62;94.93
29907;BME280;16776;50.958;10.994;2023-09-08T04:52:12;98878.78;;;17.70;94.55
29907;BME280;16776;50.958;10.994;2023-09-08T04:54:40;98875.25;;;17.71;94.38
29907;BME280;16776;50.958;10.994;2023-09-08T04:57:06;98878.50;;;17.76;94.00
29907;BME280;16776;50.958;10.994;2023-09-08T04:59:33;98882.94;;;17.74;93.66
29907;BME280;16776;50.958;10.994;2023-09-08T05:02:02;98881.63;;;17.66;93.31
29907;BME280;16776;50.958;10.994;2023-09-08T05:04:28;98890.16;;;17.52;93.27
29907;BME280;16776;50.958;10.994;2023-09-08T05:06:55;98898.41;;;17.43;93.41
29907;BME280;16776;50.958;10.994;2023-09-08T05:09:23;98892.84;;;17.33;93.56
29907;BME280;16776;50.958;10.994;2023-09-08T05:11:49;98892.66;;;17.19;93.58
29907;BME280;16776;50.958;10.994;2023-09-08T05:14:16;98894.88;;;17.10;93.87
29907;BME280;16776;50.958;10.994;2023-09-08T05:16:42;98897.94;;;17.01;94.16
29907;BME280;16776;50.958;10.994;2023-09-08T05:19:12;98900.75;;;16.96;94.44
29907;BME280;16776;50.958;10.994;2023-09-08T05:21:40;98899.25;;;16.90;94.54
29907;BME280;16776;50.958;10.994;2023-09-08T05:24:08;98900.25;;;16.88;94.87
29907;BME280;16776;50.958;10.994;2023-09-08T05:26:37;98901.78;;;16.92;94.58
29907;BME280;16776;50.958;10.994;2023-09-08T05:29:05;98904.56;;;16.89;94.84
29907;BME280;16776;50.958;10.994;2023-09-08T05:31:31;98900.16;;;16.89;94.67
29907;BME280;16776;50.958;10.994;2023-09-08T05:33:58;98903.53;;;16.91;94.74
29907;BME280;16776;50.958;10.994;2023-09-08T05:36:24;98899.97;;;16.94;94.73
29907;BME280;16776;50.958;10.994;2023-09-08T05:38:57;98898.19;;;16.94;94.75
29907;BME280;16776;50.958;10.994;2023-09-08T05:41:23;98887.09;;;16.91;94.58
29907;BME280;16776;50.958;10.994;2023-09-08T05:43:51;98897.16;;;16.98;94.43
29907;BME280;16776;50.958;10.994;2023-09-08T05:46:21;98901.28;;;17.03;94.57
29907;BME280;16776;50.958;10.994;2023-09-08T05:48:48;98904.19;;;16.96;95.25
29907;BME280;16776;50.958;10.994;2023-09-08T05:51:14;98904.06;;;16.99;95.63
29907;BME280;16776;50.958;10.994;2023-09-08T05:53:42;98907.19;;;17.06;95.24
29907;BME280;16776;50.958;10.994;2023-09-08T05:56:09;98912.25;;;17.09;95.17
29907;BME280;16776;50.958;10.994;2023-09-08T05:58:36;98904.22;;;17.14;95.30
29907;BME280;16776;50.958;10.994;2023-09-08T06:01:04;98915.19;;;17.20;94.94
29907;BME280;16776;50.958;10.994;2023-09-08T06:03:31;98912.59;;;17.20;94.86
29907;BME280;16776;50.958;10.994;2023-09-08T06:05:57;98905.63;;;17.21;94.93
29907;BME280;16776;50.958;10.994;2023-09-08T06:08:24;98910.81;;;17.21;95.60
29907;BME280;16776;50.958;10.994;2023-09-08T06:10:50;98912.41;;;17.23;96.16
29907;BME280;16776;50.958;10.994;2023-09-08T06:13:17;98912.09;;;17.29;96.47
29907;BME280;16776;50.958;10.994;2023-09-08T06:15:44;98911.59;;;17.40;96.52
29907;BME280;16776;50.958;10.994;2023-09-08T06:18:12;98913.47;;;17.54;96.34
29907;BME280;16776;50.958;10.994;2023-09-08T06:20:44;98912.63;;;17.70;96.35
29907;BME280;16776;50.958;10.994;2023-09-08T06:23:10;98917.50;;;17.78;97.03
29907;BME280;16776;50.958;10.994;2023-09-08T06:25:37;98919.28;;;17.93;96.46
29907;BME280;16776;50.958;10.994;2023-09-08T06:28:04;98921.16;;;18.07;96.00
29907;BME280;16776;50.958;10.994;2023-09-08T06:30:32;98915.22;;;18.21;96.39
29907;BME280;16776;50.958;10.994;2023-09-08T06:32:59;98919.97;;;18.30;96.14
29907;BME280;16776;50.958;10.994;2023-09-08T06:35:27;98914.75;;;18.45;96.41
29907;BME280;16776;50.958;10.994;2023-09-08T06:37:53;98919.50;;;18.54;96.49
29907;BME280;16776;50.958;10.994;2023-09-08T06:40:20;98916.97;;;18.69;96.80
29907;BME280;16776;50.958;10.994;2023-09-08T06:42:46;98926.56;;;18.84;96.19
29907;BME280;16776;50.958;10.994;2023-09-08T06:47:40;98918.75;;;19.14;95.77
29907;BME280;16776;50.958;10.994;2023-09-08T06:50:07;98923.22;;;19.27;95.22
29907;BME280;16776;50.958;10.994;2023-09-08T06:52:35;98931.19;;;19.40;95.60
29907;BME280;16776;50.958;10.994;2023-09-08T06:55:02;98928.97;;;19.48;96.01
29907;BME280;16776;50.958;10.994;2023-09-08T06:57:28;98925.66;;;19.60;95.51
29907;BME280;16776;50.958;10.994;2023-09-08T06:59:55;98930.06;;;19.74;95.33
29907;BME280;16776;50.958;10.994;2023-09-08T07:02:21;98919.72;;;19.87;95.66
29907;BME280;16776;50.958;10.994;2023-09-08T07:04:48;98918.16;;;19.98;95.28
29907;BME280;16776;50.958;10.994;2023-09-08T07:07:15;98912.38;;;20.07;94.83
29907;BME280;16776;50.958;10.994;2023-09-08T07:09:44;98923.78;;;20.21;95.32
29907;BME280;16776;50.958;10.994;2023-09-08T07:12:11;98921.63;;;20.27;94.59
29907;BME280;16776;50.958;10.994;2023-09-08T07:14:37;98919.34;;;20.35;94.84
29907;BME280;16776;50.958;10.994;2023-09-08T07:17:04;98917.94;;;20.44;95.41
29907;BME280;16776;50.958;10.994;2023-09-08T07:19:31;98919.06;;;20.54;95.25
29907;BME280;16776;50.958;10.994;2023-09-08T07:21:56;98920.09;;;20.66;94.90
29907;BME280;16776;50.958;10.994;2023-09-08T07:24:23;98916.69;;;20.78;95.43
29907;BME280;16776;50.958;10.994;2023-09-08T07:26:51;98915.59;;;20.94;95.16
29907;BME280;16776;50.958;10.994;2023-09-08T07:29:18;98916.72;;;21.05;94.36
29907;BME280;16776;50.958;10.994;2023-09-08T07:31:47;98911.50;;;21.17;94.07
29907;BME280;16776;50.958;10.994;2023-09-08T07:34:14;98911.75;;;21.27;94.08
29907;BME280;16776;50.958;10.994;2023-09-08T07:36:40;98906.84;;;21.35;94.14
29907;BME280;16776;50.958;10.994;2023-09-08T07:39:07;98908.13;;;21.42;93.68
29907;BME280;16776;50.958;10.994;2023-09-08T07:41:33;98903.31;;;21.49;94.16
29907;BME280;16776;50.958;10.994;2023-09-08T07:44:03;98898.28;;;21.58;94.11
29907;BME280;16776;50.958;10.994;2023-09-08T07:46:29;98904.78;;;21.65;94.37
29907;BME280;16776;50.958;10.994;2023-09-08T07:48:58;98898.59;;;21.79;94.25
29907;BME280;16776;50.958;10.994;2023-09-08T07:51:27;98898.00;;;21.88;94.44
29907;BME280;16776;50.958;10.994;2023-09-08T07:53:54;98894.31;;;22.03;95.47
29907;BME280;16776;50.958;10.994;2023-09-08T07:56:21;98887.19;;;22.18;94.23
29907;BME280;16776;50.958;10.994;2023-09-08T07:58:50;98898.16;;;22.36;94.55
29907;BME280;16776;50.958;10.994;2023-09-08T08:01:18;98883.09;;;22.50;94.44
29907;BME280;16776;50.958;10.994;2023-09-08T08:03:44;98888.25;;;22.65;94.45
29907;BME280;16776;50.958;10.994;2023-09-08T08:06:14;98895.72;;;22.82;93.82
29907;BME280;16776;50.958;10.994;2023-09-08T08:08:41;98893.50;;;22.88;94.66
29907;BME280;16776;50.958;10.994;2023-09-08T08:11:11;98899.41;;;23.03;94.19
29907;BME280;16776;50.958;10.994;2023-09-08T08:13:38;98898.72;;;23.12;94.08
29907;BME280;16776;50.958;10.994;2023-09-08T08:16:04;98892.38;;;23.27;94.24
29907;BME280;16776;50.958;10.994;2023-09-08T08:18:32;98892.03;;;23.43;93.99
29907;BME280;16776;50.958;10.994;2023-09-08T08:20:59;98884.91;;;23.56;94.14
29907;BME280;16776;50.958;10.994;2023-09-08T08:23:28;98878.59;;;23.70;93.53
29907;BME280;16776;50.958;10.994;2023-09-08T08:25:55;98881.88;;;23.85;94.38
29907;BME280;16776;50.958;10.994;2023-09-08T08:28:21;98878.03;;;24.00;94.04
29907;BME280;16776;50.958;10.994;2023-09-08T08:30:52;98867.16;;;24.16;94.06
29907;BME280;16776;50.958;10.994;2023-09-08T08:33:18;98875.31;;;24.35;94.35
29907;BME280;16776;50.958;10.994;2023-09-08T08:35:50;98886.50;;;24.59;94.07
29907;BME280;16776;50.958;10.994;2023-09-08T08:38:17;98875.13;;;24.70;93.19
29907;BME280;16776;50.958;10.994;2023-09-08T08:40:43;98868.97;;;24.80;92.58
29907;BME280;16776;50.958;10.994;2023-09-08T08:43:10;98871.66;;;24.90;93.43
29907;BME280;16776;50.958;10.994;2023-09-08T08:45:39;98867.38;;;25.00;92.38
29907;BME280;16776;50.958;10.994;2023-09-08T08:48:10;98868.88;;;25.14;92.98
29907;BME280;16776;50.958;10.994;2023-09-08T08:50:41;98871.44;;;25.25;92.39
29907;BME280;16776;50.958;10.994;2023-09-08T08:53:14;98863.84;;;25.32;92.00
29907;BME280;16776;50.958;10.994;2023-09-08T08:55:42;98864.56;;;25.34;92.54
29907;BME280;16776;50.958;10.994;2023-09-08T08:58:09;98859.63;;;25.40;92.12
29907;BME280;16776;50.958;10.994;2023-09-08T09:00:39;98858.59;;;25.52;91.51
29907;BME280;16776;50.958;10.994;2023-09-08T09:03:07;98850.72;;;25.62;92.03
29907;BME280;16776;50.958;10.994;2023-09-08T09:05:36;98851.34;;;25.75;92.72
29907;BME280;16776;50.958;10.994;2023-09-08T09:08:04;98840.72;;;25.86;91.85
29907;BME280;16776;50.958;10.994;2023-09-08T09:10:32;98844.13;;;25.98;91.74
29907;BME280;16776;50.958;10.994;2023-09-08T09:12:59;98841.66;;;26.06;91.41
29907;BME280;16776;50.958;10.994;2023-09-08T09:15:31;98842.66;;;26.24;91.12
29907;BME280;16776;50.958;10.994;2023-09-08T09:18:03;98840.06;;;26.34;90.70
29907;BME280;16776;50.958;10.994;2023-09-08T09:20:30;98848.84;;;26.44;91.24
29907;BME280;16776;50.958;10.994;2023-09-08T09:22:56;98843.78;;;26.62;91.18
29907;BME280;16776;50.958;10.994;2023-09-08T09:25:24;98830.56;;;26.71;91.97
29907;BME280;16776;50.958;10.994;2023-09-08T09:27:53;98846.97;;;27.04;91.30
29907;BME280;16776;50.958;10.994;2023-09-08T09:30:21;98842.13;;;27.18;90.55
29907;BME280;16776;50.958;10.994;2023-09-08T09:32:48;98841.53;;;27.34;89.88
29907;BME280;16776;50.958;10.994;2023-09-08T09:35:15;98834.13;;;27.47;90.43
29907;BME280;16776;50.958;10.994;2023-09-08T09:37:42;98836.44;;;27.60;89.79
29907;BME280;16776;50.958;10.994;2023-09-08T09:40:09;98839.78;;;27.72;89.42
29907;BME280;16776;50.958;10.994;2023-09-08T09:42:40;98833.34;;;27.84;89.92
29907;BME280;16776;50.958;10.994;2023-09-08T09:45:09;98842.78;;;27.96;89.38
29907;BME280;16776;50.958;10.994;2023-09-08T09:47:38;98829.22;;;27.99;89.89
29907;BME280;16776;50.958;10.994;2023-09-08T09:50:05;98839.59;;;28.20;89.65
29907;BME280;16776;50.958;10.994;2023-09-08T09:52:38;98843.66;;;28.41;89.14
29907;BME280;16776;50.958;10.994;2023-09-08T09:55:06;98845.72;;;28.48;89.23
29907;BME280;16776;50.958;10.994;2023-09-08T09:57:37;98840.72;;;28.62;89.93
29907;BME280;16776;50.958;10.994;2023-09-08T10:00:05;98842.50;;;28.71;89.71
29907;BME280;16776;50.958;10.994;2023-09-08T10:02:35;98841.97;;;28.86;88.42
29907;BME280;16776;50.958;10.994;2023-09-08T10:05:10;98835.47;;;28.98;89.01
29907;BME280;16776;50.958;10.994;2023-09-08T10:07:38;98840.44;;;29.01;89.22
29907;BME280;16776;50.958;10.994;2023-09-08T10:10:06;98838.56;;;29.11;88.79
29907;BME280;16776;50.958;10.994;2023-09-08T10:12:35;98840.25;;;29.20;88.07
29907;BME280;16776;50.958;10.994;2023-09-08T10:15:05;98835.41;;;29.33;89.29
29907;BME280;16776;50.958;10.994;2023-09-08T10:17:34;98835.63;;;29.40;87.94
29907;BME280;16776;50.958;10.994;2023-09-08T10:20:02;98833.88;;;29.48;87.40
29907;BME280;16776;50.958;10.994;2023-09-08T10:22:38;98835.41;;;29.59;88.29
29907;BME280;16776;50.958;10.994;2023-09-08T10:25:06;98831.28;;;29.65;87.42
29907;BME280;16776;50.958;10.994;2023-09-08T10:27:34;98826.34;;;29.70;87.41
29907;BME280;16776;50.958;10.994;2023-09-08T10:30:02;98821.09;;;29.78;88.25
29907;BME280;16776;50.958;10.994;2023-09-08T10:32:31;98820.03;;;29.88;88.02
29907;BME280;16776;50.958;10.994;2023-09-08T10:35:00;98817.91;;;30.00;86.79
29907;BME280;16776;50.958;10.994;2023-09-08T10:37:28;98820.56;;;30.08;86.82
29907;BME280;16776;50.958;10.994;2023-09-08T10:39:55;98828.56;;;30.16;85.51
29907;BME280;16776;50.958;10.994;2023-09-08T10:42:24;98819.69;;;30.25;85.73
29907;BME280;16776;50.958;10.994;2023-09-08T10:44:59;98823.00;;;30.35;86.09
29907;BME280;16776;50.958;10.994;2023-09-08T10:47:39;98805.41;;;30.34;85.85
29907;BME280;16776;50.958;10.994;2023-09-08T10:50:15;98811.06;;;30.48;86.48
29907;BME280;16776;50.958;10.994;2023-09-08T10:52:42;98814.41;;;30.50;86.84
29907;BME280;16776;50.958;10.994;2023-09-08T10:55:10;98812.59;;;30.58;85.67
29907;BME280;16776;50.958;10.994;2023-09-08T10:57:37;98812.94;;;30.63;86.21
29907;BME280;16776;50.958;10.994;2023-09-08T11:00:06;98823.28;;;30.74;86.29
29907;BME280;16776;50.958;10.994;2023-09-08T11:02:38;98820.31;;;30.78;85.79
29907;BME280;16776;50.958;10.994;2023-09-08T11:05:08;98814.50;;;30.90;85.87
29907;BME280;16776;50.958;10.994;2023-09-08T11:07:35;98808.66;;;30.95;85.17
29907;BME280;16776;50.958;10.994;2023-09-08T11:10:03;98815.66;;;31.04;85.17
29907;BME280;16776;50.958;10.994;2023-09-08T11:12:30;98812.13;;;31.11;84.83
29907;BME280;16776;50.958;10.994;2023-09-08T11:14:57;98815.97;;;31.17;83.56
29907;BME280;16776;50.958;10.994;2023-09-08T11:17:26;98816.81;;;31.17;82.05
29907;BME280;16776;50.958;10.994;2023-09-08T11:19:53;98807.47;;;31.05;82.29
29907;BME280;16776;50.958;10.994;2023-09-08T11:22:22;98809.50;;;30.95;82.60
29907;BME280;16776;50.958;10.994;2023-09-08T11:24:50;98803.00;;;30.82;82.56
29907;BME280;16776;50.958;10.994;2023-09-08T11:27:18;98800.84;;;30.77;81.77
29907;BME280;16776;50.958;10.994;2023-09-08T11:29:45;98795.84;;;30.74;82.17
29907;BME280;16776;50.958;10.994;2023-09-08T11:32:12;98790.53;;;30.74;82.78
29907;BME280;16776;50.958;10.994;2023-09-08T11:34:39;98791.38;;;30.74;82.69
29907;BME280;16776;50.958;10.994;2023-09-08T11:37:08;98791.06;;;30.78;82.92
29907;BME280;16776;50.958;10.994;2023-09-08T11:39:37;98791.69;;;30.88;83.14
29907;BME280;16776;50.958;10.994;2023-09-08T11:42:05;98793.22;;;30.90;81.85
29907;BME280;16776;50.958;10.994;2023-09-08T11:44:32;98792.69;;;30.95;82.00
29907;BME280;16776;50.958;10.994;2023-09-08T11:46:59;98784.22;;;30.99;82.09
29907;BME280;16776;50.958;10.994;2023-09-08T11:49:25;98787.19;;;31.04;81.37
29907;BME280;16776;50.958;10.994;2023-09-08T11:51:52;98784.88;;;31.09;81.81
29907;BME280;16776;50.958;10.994;2023-09-08T11:54:18;98779.22;;;31.12;82.29
29907;BME280;16776;50.958;10.994;2023-09-08T11:56:47;98770.09;;;31.23;81.89
29907;BME280;16776;50.958;10.994;2023-09-08T11:59:14;98769.75;;;31.26;82.10
29907;BME280;16776;50.958;10.994;2023-09-08T12:01:40;98770.25;;;31.30;81.42
29907;BME280;16776;50.958;10.994;2023-09-08T12:04:17;98770.34;;;31.44;80.95
29907;BME280;16776;50.958;10.994;2023-09-08T12:06:43;98774.91;;;31.36;80.43
29907;BME280;16776;50.958;10.994;2023-09-08T12:09:10;98778.19;;;31.38;80.51
29907;BME280;16776;50.958;10.994;2023-09-08T12:11:38;98780.84;;;31.38;80.91
29907;BME280;16776;50.958;10.994;2023-09-08T12:14:11;98773.19;;;31.43;80.81
29907;BME280;16776;50.958;10.994;2023-09-08T12:16:37;98777.03;;;31.40;79.94
29907;BME280;16776;50.958;10.994;2023-09-08T12:19:04;98777.88;;;31.41;80.10
29907;BME280;16776;50.958;10.994;2023-09-08T12:21:32;98772.72;;;31.39;80.00
29907;BME280;16776;50.958;10.994;2023-09-08T12:23:58;98773.69;;;31.38;80.82
29907;BME280;16776;50.958;10.994;2023-09-08T12:26:25;98767.53;;;31.38;80.75
29907;BME280;16776;50.958;10.994;2023-09-08T12:28:52;98769.88;;;31.41;80.87
29907;BME280;16776;50.958;10.994;2023-09-08T12:31:20;98755.06;;;31.46;80.63
29907;BME280;16776;50.958;10.994;2023-09-08T12:33:47;98759.19;;;31.49;80.88
29907;BME280;16776;50.958;10.994;2023-09-08T12:36:15;98760.38;;;31.54;79.93
29907;BME280;16776;50.958;10.994;2023-09-08T12:38:47;98741.19;;;31.59;80.48
29907;BME280;16776;50.958;10.994;2023-09-08T12:41:14;98757.00;;;31.61;80.22
29907;BME280;16776;50.958;10.994;2023-09-08T12:43:41;98755.81;;;31.63;80.23
29907;BME280;16776;50.958;10.994;2023-09-08T12:46:07;98753.84;;;31.65;80.29
29907;BME280;16776;50.958;10.994;2023-09-08T12:48:35;98747.00;;;31.71;80.42
29907;BME280;16776;50.958;10.994;2023-09-08T12:51:02;98748.84;;;31.70;80.00
29907;BME280;16776;50.958;10.994;2023-09-08T12:53:29;98743.81;;;31.75;80.03
29907;BME280;16776;50.958;10.994;2023-09-08T12:55:56;98741.16;;;31.75;79.93